createdAt,value
2017-04-20T00:00:25.977Z,12.18
2017-04-20T00:01:25.158Z,16.57
2017-04-20T00:02:22.556Z,21.92
2017-04-20T00:03:19.920Z,12.17
2017-04-20T00:04:17.361Z,14.63
2017-04-20T00:05:15.953Z,16.63
2017-04-20T00:06:14.110Z,12.30
2017-04-20T00:07:11.440Z,16.32
2017-04-20T00:08:08.801Z,14.45
2017-04-20T00:09:07.013Z,12.92
2017-04-20T00:10:04.358Z,15.35
2017-04-20T00:11:01.678Z,13.63
2017-04-20T00:11:59.120Z,13.65
2017-04-20T00:12:57.268Z,12.82
2017-04-20T00:13:54.686Z,13.78
2017-04-20T00:14:52.774Z,14.83
2017-04-20T00:15:50.175Z,14.60
2017-04-20T00:16:47.503Z,15.28
2017-04-20T00:17:44.873Z,12.82
2017-04-20T00:18:43.018Z,12.98
2017-04-20T00:19:40.442Z,12.42
2017-04-20T00:20:37.860Z,19.12
2017-04-20T00:21:35.233Z,12.92
2017-04-20T00:22:32.641Z,14.08
2017-04-20T00:23:30.002Z,12.88
2017-04-20T00:24:27.406Z,13.82
2017-04-20T00:25:25.670Z,17.43
2017-04-20T00:26:23.539Z,17.48
2017-04-20T00:27:20.889Z,15.68
2017-04-20T00:28:18.978Z,15.12
2017-04-20T00:29:17.119Z,18.42
2017-04-20T00:30:14.649Z,16.17
2017-04-20T00:31:12.037Z,12.93
2017-04-20T00:32:09.378Z,13.10
2017-04-20T00:33:06.734Z,14.10
2017-04-20T00:34:05.348Z,14.70
2017-04-20T00:35:02.718Z,13.87
2017-04-20T00:36:00.158Z,14.87
2017-04-20T00:36:57.614Z,11.95
2017-04-20T00:37:55.698Z,13.38
2017-04-20T00:38:53.057Z,13.43
2017-04-20T00:39:50.470Z,14.33
2017-04-20T00:40:47.926Z,12.22
2017-04-20T00:41:45.269Z,14.40
2017-04-20T00:42:42.590Z,14.75
2017-04-20T00:43:39.962Z,15.62
2017-04-20T00:44:37.327Z,14.32
2017-04-20T00:45:36.239Z,14.95
2017-04-20T00:46:33.644Z,15.30
2017-04-20T00:47:31.715Z,15.37
2017-04-20T00:48:29.065Z,18.27
2017-04-20T00:49:26.521Z,15.98
2017-04-20T00:50:23.887Z,16.52
2017-04-20T00:51:21.302Z,13.97
2017-04-20T00:52:20.017Z,13.25
2017-04-20T00:53:18.097Z,13.68
2017-04-20T00:54:15.493Z,15.98
2017-04-20T00:55:12.867Z,13.52
2017-04-20T00:56:11.001Z,22.63
2017-04-20T00:57:08.417Z,16.08
2017-04-20T00:58:05.757Z,14.03
2017-04-20T00:59:04.426Z,15.75
2017-04-20T01:00:01.877Z,19.98
2017-04-20T01:00:59.268Z,18.83
2017-04-20T05:57:59.482Z,20.97
2017-04-20T05:58:57.574Z,13.95
2017-04-20T05:59:54.901Z,16.27
2017-04-20T06:00:59.750Z,19.27
2017-04-20T06:01:57.882Z,19.35
2017-04-20T06:03:28.289Z,16.03
2017-04-20T06:04:26.490Z,14.82
2017-04-20T06:05:24.641Z,18.55
2017-04-20T06:06:22.091Z,20.32
2017-04-20T06:07:20.222Z,15.92
2017-04-20T06:08:18.338Z,19.25
2017-04-20T06:09:16.584Z,16.52
2017-04-20T06:10:15.437Z,20.07
2017-04-20T06:11:13.534Z,15.92
2017-04-20T06:12:11.738Z,18.52
2017-04-20T06:13:09.859Z,23.05
2017-04-20T06:14:07.219Z,16.03
2017-04-20T06:15:05.340Z,14.60
2017-04-20T06:16:03.490Z,18.05
2017-04-20T06:17:01.585Z,16.18
2017-04-20T16:36:32.163Z,19.62
2017-04-20T16:37:31.157Z,16.42
2017-04-20T16:38:30.151Z,16.30
2017-04-20T16:39:28.415Z,19.85
2017-04-20T16:45:07.959Z,21.50
2017-04-20T16:46:06.346Z,17.78
2017-04-20T16:47:03.925Z,20.77
2017-04-20T16:48:01.505Z,18.37
2017-04-20T16:48:59.139Z,20.22
2017-04-20T16:49:56.667Z,17.38
2017-04-20T16:50:54.437Z,19.45
2017-04-20T16:51:52.042Z,17.22
2017-04-20T16:52:50.306Z,20.52
2017-04-20T16:53:48.618Z,20.23
2017-04-20T16:54:46.911Z,20.15
2017-04-20T16:55:44.430Z,18.63
2017-04-20T16:56:42.077Z,22.15
2017-04-20T16:57:39.639Z,17.33
2017-04-20T16:58:37.210Z,19.55
2017-04-20T16:59:34.839Z,18.97
2017-04-20T17:00:32.414Z,18.18
2017-04-20T17:01:29.956Z,21.58
2017-04-20T17:02:28.460Z,20.62
2017-04-20T17:03:26.068Z,21.83
2017-04-20T17:04:23.604Z,19.63
2017-04-20T17:05:22.394Z,22.37
2017-04-20T17:06:19.920Z,24.03
2017-04-20T17:07:18.194Z,24.70
2017-04-20T17:08:15.869Z,23.98
2017-04-20T17:09:14.174Z,21.83
2017-04-20T17:10:11.777Z,19.12
2017-04-20T17:11:10.100Z,19.33
2017-04-20T17:12:07.692Z,21.87
2017-04-20T17:13:06.072Z,19.90
2017-04-20T17:14:03.750Z,22.02
2017-04-20T17:15:02.051Z,18.78
2017-04-20T17:16:00.313Z,20.27
2017-04-20T17:16:58.663Z,19.55
2017-04-20T17:17:56.955Z,22.92
2017-04-20T17:18:54.512Z,20.57
2017-04-20T17:19:52.111Z,20.60
2017-04-20T17:20:49.656Z,20.43
2017-04-20T17:21:47.186Z,21.42
2017-04-20T17:22:44.704Z,20.08
2017-04-20T17:23:43.013Z,22.48
2017-04-20T17:24:40.531Z,20.15
2017-04-20T17:25:38.255Z,24.35
2017-04-20T17:26:36.682Z,29.37
2017-04-20T17:27:34.537Z,26.80
2017-04-20T17:28:32.071Z,22.35
2017-04-20T17:29:29.618Z,22.77
2017-04-20T17:30:27.195Z,28.07
2017-04-20T17:31:24.849Z,23.98
2017-04-20T17:32:23.195Z,22.93
2017-04-20T17:33:21.232Z,26.68
2017-04-20T17:34:18.861Z,24.35
2017-04-20T17:35:17.403Z,21.85
2017-04-20T17:36:15.707Z,24.25
2017-04-20T17:37:14.010Z,26.75
2017-04-20T17:38:12.321Z,25.73
2017-04-20T17:39:10.650Z,23.60
2017-04-20T17:40:08.954Z,23.45
2017-04-20T17:41:07.424Z,28.17
2017-04-20T17:42:04.986Z,25.25
2017-04-20T17:43:02.597Z,25.67
2017-04-20T17:44:00.228Z,23.25
2017-04-20T17:44:57.822Z,24.85
2017-04-20T17:45:56.085Z,23.58
2017-04-20T17:46:53.687Z,25.37
2017-04-20T17:47:51.311Z,26.25
2017-04-20T17:48:48.897Z,24.40
2017-04-20T17:49:47.212Z,22.45
2017-04-20T17:50:45.468Z,26.18
2017-04-20T17:51:43.739Z,23.45
2017-04-20T17:52:41.421Z,23.73
2017-04-20T17:53:39.029Z,24.65
2017-04-20T17:54:36.594Z,25.40
2017-04-20T17:55:34.147Z,22.98
2017-04-20T17:56:31.679Z,25.20
2017-04-20T17:57:29.196Z,22.67
2017-04-20T17:58:26.828Z,24.68
2017-04-20T17:59:24.382Z,24.32
2017-04-20T18:00:22.734Z,25.40
2017-04-20T18:01:20.348Z,26.03
2017-04-20T18:02:17.931Z,26.13
2017-04-20T18:03:15.551Z,22.80
2017-04-20T18:04:14.319Z,27.75
2017-04-20T18:05:11.851Z,23.95
2017-04-20T18:06:10.147Z,24.42
2017-04-20T18:07:08.443Z,24.05
2017-04-20T18:08:06.884Z,24.17
2017-04-20T18:09:05.535Z,25.75
2017-04-20T18:10:03.127Z,25.80
2017-04-20T18:11:00.664Z,25.22
2017-04-20T18:11:58.263Z,24.92
2017-04-20T18:12:56.707Z,25.28
2017-04-20T18:13:55.026Z,25.77
2017-04-20T18:14:53.327Z,26.93
2017-04-20T18:15:51.650Z,28.77
2017-04-20T18:16:49.935Z,24.13
2017-04-20T18:17:47.540Z,25.72
2017-04-20T18:18:45.173Z,23.87
2017-04-20T18:19:43.505Z,24.77
2017-04-20T18:20:41.792Z,27.08
2017-04-20T18:21:40.103Z,27.63
2017-04-20T18:22:38.448Z,26.30
2017-04-20T18:23:36.704Z,23.47
2017-04-20T18:24:35.099Z,28.97
2017-04-20T18:25:33.379Z,24.08
2017-04-20T18:26:32.416Z,27.22
2017-04-20T18:27:31.594Z,24.93
2017-04-20T18:28:29.965Z,27.90
2017-04-20T18:29:28.342Z,25.25
2017-04-20T18:30:26.763Z,26.47
2017-04-20T18:31:25.044Z,26.10
2017-04-20T18:32:23.380Z,25.58
2017-04-20T18:33:21.692Z,26.73
2017-04-20T18:34:19.302Z,25.68
2017-04-20T18:35:16.915Z,27.90
2017-04-20T18:36:15.303Z,28.42
2017-04-20T18:37:12.849Z,25.77
2017-04-20T18:38:11.153Z,29.57
2017-04-20T18:39:08.696Z,28.05
2017-04-20T18:40:06.283Z,27.05
2017-04-20T18:41:03.885Z,25.52
2017-04-20T18:42:01.564Z,32.65
2017-04-20T18:42:59.113Z,24.43
2017-04-20T18:43:56.683Z,26.18
2017-04-20T18:44:54.251Z,25.75
2017-04-20T18:45:51.949Z,26.35
2017-04-20T18:46:50.218Z,24.20
2017-04-20T18:47:47.806Z,24.60
2017-04-20T18:48:45.406Z,26.12
2017-04-20T18:49:42.930Z,20.92
2017-04-20T18:50:40.469Z,20.90
2017-04-20T18:51:37.991Z,26.72
2017-04-20T18:52:35.602Z,26.22
2017-04-20T18:53:33.151Z,25.07
2017-04-20T18:54:30.667Z,30.92
2017-04-20T18:55:29.004Z,23.57
2017-04-20T18:56:26.540Z,25.82
2017-04-20T18:57:24.090Z,28.33
2017-04-20T18:58:21.628Z,27.40
2017-04-20T18:59:19.982Z,26.72
2017-04-20T19:00:18.291Z,26.52
2017-04-20T19:01:16.075Z,28.13
2017-04-20T19:02:13.797Z,25.42
2017-04-20T19:03:11.418Z,27.93
2017-04-20T19:04:09.003Z,24.75
2017-04-20T19:05:07.364Z,28.52
2017-04-20T19:06:04.955Z,26.10
2017-04-20T19:07:02.570Z,25.80
2017-04-20T19:08:00.114Z,23.15
2017-04-20T19:08:57.675Z,24.22
2017-04-20T19:09:55.233Z,23.48
2017-04-20T19:10:52.869Z,26.98
2017-04-20T19:11:50.450Z,24.68
2017-04-20T19:12:47.989Z,24.77
2017-04-20T19:13:46.251Z,26.80
2017-04-20T19:14:43.766Z,23.92
2017-04-20T19:15:41.390Z,22.37
2017-04-20T19:16:38.924Z,24.82
2017-04-20T19:17:36.608Z,24.93
2017-04-20T19:18:34.545Z,26.25
2017-04-20T19:19:32.208Z,27.08
2017-04-20T19:20:30.522Z,27.82
2017-04-20T19:21:28.833Z,25.38
2017-04-20T19:22:27.189Z,23.80
2017-04-20T19:23:25.593Z,27.48
2017-04-20T19:24:23.956Z,26.82
2017-04-20T19:25:22.269Z,27.30
2017-04-20T19:26:21.374Z,25.80
2017-04-20T19:27:19.654Z,27.88
2017-04-20T19:28:18.002Z,27.77
2017-04-20T19:29:15.568Z,26.90
2017-04-20T19:30:13.178Z,26.25
2017-04-20T19:31:10.730Z,36.52
2017-04-20T19:32:08.254Z,28.43
2017-04-20T19:33:05.846Z,25.87
2017-04-20T19:34:03.394Z,27.85
2017-04-20T19:35:00.923Z,27.58
2017-04-20T19:35:59.205Z,28.43
2017-04-20T19:36:57.561Z,27.13
2017-04-20T19:37:55.958Z,28.28
2017-04-20T19:38:54.335Z,27.43
2017-04-20T19:39:52.064Z,31.48
2017-04-20T19:40:50.369Z,30.25
2017-04-20T19:41:48.752Z,27.93
2017-04-20T19:42:47.076Z,27.18
2017-04-20T19:43:45.391Z,31.47
2017-04-20T19:44:42.964Z,26.87
2017-04-20T19:45:40.540Z,32.30
2017-04-20T19:46:38.079Z,30.23
2017-04-20T19:47:35.732Z,27.60
2017-04-20T19:48:34.054Z,30.60
2017-04-20T19:49:32.368Z,29.55
2017-04-20T19:50:31.471Z,29.92
2017-04-20T19:51:29.975Z,36.12
2017-04-20T19:52:28.320Z,26.10
2017-04-20T19:53:26.723Z,32.87
2017-04-20T19:54:25.034Z,25.60
2017-04-20T19:55:23.399Z,27.37
2017-04-20T19:56:21.679Z,33.48
2017-04-20T19:57:20.019Z,28.95
2017-04-20T19:58:18.345Z,32.33
2017-04-20T19:59:16.654Z,31.73
2017-04-20T20:00:15.882Z,31.65
2017-04-20T20:01:14.170Z,31.23
2017-04-20T20:02:13.806Z,30.40
2017-04-20T20:03:12.968Z,30.92
2017-04-20T20:04:11.331Z,30.87
2017-04-20T20:05:09.672Z,29.63
2017-04-20T20:06:08.155Z,31.07
2017-04-20T20:07:06.448Z,35.57
2017-04-20T20:08:04.748Z,27.82
2017-04-20T20:09:03.634Z,26.35
2017-04-20T20:10:02.041Z,26.22
2017-04-20T20:11:00.356Z,28.55
2017-04-20T20:11:59.427Z,31.72
2017-04-20T20:12:57.704Z,30.35
2017-04-20T20:13:56.033Z,29.17
2017-04-20T20:14:54.324Z,24.65
2017-04-20T20:15:53.369Z,27.18
2017-04-20T20:16:51.771Z,28.55
2017-04-20T20:17:50.201Z,27.93
2017-04-20T20:18:47.722Z,25.47
2017-04-20T20:19:46.036Z,25.85
2017-04-20T20:20:44.314Z,28.80
2017-04-20T20:21:42.602Z,32.08
2017-04-20T20:22:40.911Z,29.47
2017-04-20T20:23:38.492Z,27.10
2017-04-20T20:24:36.063Z,26.97
2017-04-20T20:25:34.426Z,28.08
2017-04-20T20:26:32.952Z,29.55
2017-04-20T20:27:31.497Z,29.35
2017-04-20T20:28:29.145Z,32.07
2017-04-20T20:29:26.743Z,27.57
2017-04-20T20:30:24.256Z,28.12
2017-04-20T20:31:21.843Z,29.18
2017-04-20T20:32:19.392Z,29.83
2017-04-20T20:33:17.023Z,26.70
2017-04-20T20:34:14.944Z,30.50
2017-04-20T20:35:14.053Z,29.98
2017-04-20T20:36:11.817Z,29.97
2017-04-20T20:37:09.346Z,27.65
2017-04-20T20:38:06.986Z,28.10
2017-04-20T20:39:05.498Z,26.67
2017-04-20T20:40:03.787Z,32.92
2017-04-20T20:41:02.057Z,30.47
2017-04-20T20:42:00.307Z,30.63
2017-04-20T20:42:58.655Z,33.58
2017-04-20T20:43:56.998Z,27.52
2017-04-20T20:44:55.279Z,32.20
2017-04-20T20:45:53.655Z,32.05
2017-04-20T20:46:51.941Z,32.35
2017-04-20T20:47:50.207Z,29.98
2017-04-20T20:48:47.781Z,29.33
2017-04-20T20:49:45.454Z,31.17
2017-04-20T20:50:43.718Z,28.65
2017-04-20T20:51:42.101Z,29.02
2017-04-20T20:52:40.459Z,29.37
2017-04-20T20:53:38.889Z,31.48
2017-04-20T20:54:37.953Z,28.10
2017-04-20T20:55:37.080Z,28.68
2017-04-20T20:56:35.314Z,27.80
2017-04-20T20:57:33.647Z,28.12
2017-04-20T20:58:32.079Z,27.37
2017-04-20T20:59:30.365Z,27.58
2017-04-20T21:00:29.408Z,31.92
2017-04-20T21:01:27.660Z,28.58
2017-04-20T21:02:25.197Z,36.77
2017-04-20T21:03:22.767Z,29.78
2017-04-20T21:04:21.114Z,30.83
2017-04-20T21:05:19.382Z,27.20
2017-04-20T21:06:17.727Z,31.80
2017-04-20T21:07:16.072Z,33.78
2017-04-20T21:08:14.350Z,31.22
2017-04-20T21:09:12.775Z,25.33
2017-04-20T21:10:11.041Z,26.80
2017-04-20T21:11:09.408Z,32.22
2017-04-20T21:12:07.719Z,27.30
2017-04-20T21:13:05.251Z,26.95
2017-04-20T21:14:03.570Z,28.30
2017-04-20T21:15:01.928Z,25.50
2017-04-20T21:16:00.203Z,26.22
2017-04-20T21:16:58.468Z,26.43
2017-04-20T21:17:56.000Z,31.12
2017-04-20T21:18:54.235Z,25.65
2017-04-20T21:19:52.488Z,28.62
2017-04-20T21:20:50.131Z,33.30
2017-04-20T21:21:47.760Z,31.68
2017-04-20T21:22:46.069Z,33.62
2017-04-20T21:23:44.327Z,27.08
2017-04-20T21:24:42.665Z,26.18
2017-04-20T21:25:40.898Z,25.75
2017-04-20T21:26:39.277Z,23.33
2017-04-20T21:27:38.258Z,26.43
2017-04-20T21:28:35.822Z,25.98
2017-04-20T21:29:33.927Z,25.63
2017-04-20T21:30:31.426Z,29.42
2017-04-20T21:31:28.959Z,27.53
2017-04-20T21:32:27.287Z,27.63
2017-04-20T21:33:25.538Z,27.27
2017-04-20T21:34:23.092Z,26.52
2017-04-20T21:35:20.595Z,24.92
2017-04-20T21:36:18.142Z,25.55
2017-04-20T21:37:16.428Z,24.92
2017-04-20T21:38:14.076Z,27.90
2017-04-20T21:39:11.559Z,24.48
2017-04-20T21:40:09.087Z,27.08
2017-04-20T21:41:06.675Z,21.85
2017-04-20T21:42:04.198Z,25.35
2017-04-20T21:43:01.808Z,26.32
2017-04-20T21:43:59.416Z,27.10
2017-04-20T21:44:56.950Z,27.03
2017-04-20T21:45:54.500Z,27.05
2017-04-20T21:46:52.080Z,27.22
2017-04-20T21:47:50.377Z,25.55
2017-04-20T21:48:47.883Z,27.62
2017-04-20T21:49:45.568Z,30.18
2017-04-20T21:50:43.831Z,23.30
2017-04-20T21:51:42.080Z,23.30
2017-04-20T21:52:40.398Z,26.53
2017-04-20T21:53:38.757Z,23.08
2017-04-20T21:54:37.023Z,25.07
2017-04-20T21:55:35.301Z,26.17
2017-04-20T21:56:33.561Z,22.82
2017-04-20T21:57:32.022Z,24.32
2017-04-20T21:58:30.322Z,30.27
2017-04-20T21:59:28.548Z,24.18
2017-04-20T22:00:26.864Z,26.82
2017-04-20T22:01:25.132Z,24.92
2017-04-20T22:02:23.498Z,26.77
2017-04-20T22:03:21.122Z,22.73
2017-04-20T22:04:19.491Z,25.08
2017-04-20T22:05:17.232Z,22.82
2017-04-20T22:06:14.768Z,26.17
2017-04-20T22:07:12.339Z,24.32
2017-04-20T22:08:09.899Z,24.80
2017-04-20T22:09:07.464Z,27.63
2017-04-20T22:10:05.123Z,29.97
2017-04-20T22:11:02.651Z,25.15
2017-04-20T22:12:00.231Z,27.28
2017-04-20T22:12:57.771Z,29.75
2017-04-20T22:13:55.268Z,28.73
2017-04-20T22:14:52.816Z,28.03
2017-04-20T22:15:50.430Z,26.88
2017-04-20T22:16:47.963Z,26.70
2017-04-20T22:17:46.261Z,28.28
2017-04-20T22:18:43.775Z,26.88
2017-04-20T22:19:41.308Z,26.95
2017-04-20T22:20:38.839Z,27.40
2017-04-20T22:21:36.503Z,24.28
2017-04-20T22:22:34.046Z,26.48
2017-04-20T22:23:32.293Z,25.48
2017-04-20T22:24:29.795Z,25.12
2017-04-20T22:25:27.349Z,27.43
2017-04-20T22:26:24.871Z,26.42
2017-04-20T22:27:22.482Z,29.82
2017-04-20T22:28:19.999Z,26.00
2017-04-20T22:29:17.499Z,30.00
2017-04-20T22:30:15.001Z,23.32
2017-04-20T22:31:12.575Z,27.62
2017-04-20T22:32:10.834Z,26.62
2017-04-20T22:33:08.437Z,27.28
2017-04-20T22:34:05.937Z,25.73
2017-04-20T22:35:03.555Z,30.10
2017-04-20T22:36:01.084Z,26.98
2017-04-20T22:36:58.746Z,31.18
2017-04-20T22:37:56.287Z,27.43
2017-04-20T22:38:53.913Z,24.97
2017-04-20T22:39:51.468Z,23.58
2017-04-20T22:40:48.964Z,25.62
2017-04-20T22:41:46.507Z,26.90
2017-04-20T22:42:44.079Z,28.42
2017-04-20T22:43:41.687Z,27.78
2017-04-20T22:44:39.247Z,25.77
2017-04-20T22:45:37.154Z,26.25
2017-04-20T22:46:34.714Z,26.30
2017-04-20T22:47:32.963Z,27.05
2017-04-20T22:48:31.738Z,30.42
2017-04-20T22:49:29.363Z,29.77
2017-04-20T22:50:26.934Z,26.78
2017-04-20T22:51:24.515Z,32.35
2017-04-20T22:52:22.055Z,26.93
2017-04-20T22:53:20.518Z,26.42
2017-04-20T22:54:18.852Z,30.40
2017-04-20T22:55:17.187Z,28.68
2017-04-20T22:56:15.441Z,30.83
2017-04-20T22:57:13.710Z,29.72
2017-04-20T22:58:11.991Z,31.68
2017-04-20T22:59:10.383Z,27.40
2017-04-20T23:00:08.719Z,26.03
2017-04-20T23:01:06.947Z,29.77
2017-04-20T23:02:05.539Z,33.48
2017-04-20T23:03:03.055Z,27.03
2017-04-20T23:04:00.639Z,31.15
2017-04-20T23:04:58.211Z,30.22
2017-04-20T23:05:56.460Z,25.82
2017-04-20T23:06:54.016Z,31.65
2017-04-20T23:07:51.527Z,28.20
2017-04-20T23:08:49.063Z,27.12
2017-04-20T23:09:46.710Z,29.47
2017-04-20T23:10:44.219Z,30.22
2017-04-20T23:11:41.753Z,24.35
2017-04-20T23:12:39.305Z,28.38
2017-04-20T23:13:37.568Z,28.42
2017-04-20T23:14:35.914Z,27.73
2017-04-20T23:15:33.625Z,28.80
2017-04-20T23:16:31.110Z,29.70
2017-04-20T23:17:29.386Z,28.37
2017-04-20T23:18:26.961Z,27.93
2017-04-20T23:19:24.479Z,29.05
2017-04-20T23:20:22.703Z,28.13
2017-04-20T23:21:20.267Z,26.65
2017-04-20T23:22:18.487Z,27.73
2017-04-20T23:23:15.987Z,27.83
2017-04-20T23:24:14.212Z,24.63
2017-04-20T23:25:12.423Z,27.17
2017-04-20T23:26:10.038Z,29.58
2017-04-20T23:27:08.309Z,28.03
2017-04-20T23:28:07.283Z,27.28
2017-04-20T23:29:05.550Z,30.72
2017-04-20T23:30:03.795Z,28.72
2017-04-20T23:31:01.331Z,30.93
2017-04-20T23:31:58.944Z,28.62
2017-04-20T23:32:57.168Z,26.22
2017-04-20T23:33:55.402Z,27.95
2017-04-20T23:34:52.897Z,23.50
2017-04-20T23:35:50.399Z,27.27
2017-04-20T23:36:47.923Z,27.15
2017-04-20T23:37:46.354Z,24.67
2017-04-20T23:38:43.846Z,30.33
2017-04-20T23:39:41.354Z,25.30
2017-04-20T23:40:38.938Z,28.92
2017-04-20T23:41:37.272Z,26.35
2017-04-20T23:42:34.783Z,29.35
2017-04-20T23:43:32.406Z,28.00
2017-04-20T23:44:29.876Z,26.22
2017-04-20T23:45:27.430Z,25.58
2017-04-20T23:46:25.688Z,27.77
2017-04-20T23:47:23.187Z,27.22
2017-04-20T23:48:21.418Z,28.08
2017-04-20T23:49:19.020Z,28.82
2017-04-20T23:50:17.222Z,32.18
2017-04-20T23:51:14.715Z,30.75
2017-04-20T23:52:12.345Z,30.28
2017-04-20T23:53:09.867Z,27.78
2017-04-20T23:54:07.359Z,29.37
2017-04-20T23:55:04.982Z,29.22
2017-04-20T23:56:02.458Z,28.27
2017-04-20T23:56:59.925Z,31.90
2017-04-20T23:57:57.623Z,26.52
2017-04-20T23:58:55.157Z,28.62
2017-04-20T23:59:53.405Z,31.48
